Time;durP1;ratioP1;P1;durP2;ratioP2;P2;SDS_P1;SDS_P2;PMS_P1;PMS_P2;Temp;Humidity;BMP_temperature;BMP_pressure;BME280_temperature;BME280_humidity;BME280_pressure;Samples;Min_cycle;Max_cycle;Signal;HPM_P1;HPM_P2
2021/09/06 00:02:38;;;;;;;6.53;4.67;;;;;;;8.56;69.66;101202.42;2143219;81;21553;-78
2021/09/06 00:05:39;;;;;;;8.75;5.42;;;;;;;8.52;69.90;101201.36;2146780;82;21791;-78
2021/09/06 00:08:40;;;;;;;6.80;4.95;;;;;;;8.44;69.93;101197.67;2106381;84;21334;-75
2021/09/06 00:11:41;;;;;;;10.82;5.08;;;;;;;8.39;70.01;101197.20;2146494;82;21014;-77
2021/09/06 00:14:42;;;;;;;14.20;5.20;;;;;;;8.40;70.36;101202.87;2115087;83;20981;-76
2021/09/06 00:17:44;;;;;;;10.70;5.17;;;;;;;8.39;70.53;101198.07;2109619;83;21567;-76
2021/09/06 00:20:45;;;;;;;12.23;5.58;;;;;;;8.36;70.70;101189.01;2142707;81;20967;-76
2021/09/06 00:23:46;;;;;;;10.72;4.83;;;;;;;8.35;70.72;101186.02;2107827;84;21009;-78
2021/09/06 00:26:48;;;;;;;6.65;4.53;;;;;;;8.30;70.47;101185.55;2146880;82;21080;-79
2021/09/06 00:29:49;;;;;;;9.15;5.62;;;;;;;8.26;70.12;101186.78;2145206;81;20968;-78
2021/09/06 00:32:50;;;;;;;;;;;;;;;8.20;70.34;101185.97;2147171;81;21088;-77
2021/09/06 00:35:51;;;;;;;7.40;4.70;;;;;;;8.09;70.73;101186.34;2146525;81;20732;-78
2021/09/06 00:38:53;;;;;;;9.35;5.33;;;;;;;7.98;70.99;101181.09;2106585;84;21072;-78
2021/09/06 00:41:54;;;;;;;8.80;5.40;;;;;;;7.93;71.39;101178.46;2145140;82;21020;-75
2021/09/06 00:44:55;;;;;;;12.05;5.35;;;;;;;7.90;71.61;101177.39;2145645;81;21498;-77
2021/09/06 00:47:56;;;;;;;9.15;4.95;;;;;;;7.87;71.65;101179.80;2146352;82;20976;-77
2021/09/06 00:50:57;;;;;;;9.28;5.58;;;;;;;7.88;71.58;101178.82;2106189;84;20993;-77
2021/09/06 00:53:59;;;;;;;7.78;4.87;;;;;;;7.91;71.72;101189.14;2106953;83;21024;-77
2021/09/06 00:57:01;;;;;;;9.55;5.67;;;;;;;7.90;71.54;101183.51;2087156;84;21040;-77
2021/09/06 01:00:08;;;;;;;6.65;4.37;;;;;;;7.87;71.70;101183.76;2143526;81;21060;-77
2021/09/06 01:03:10;;;;;;;7.08;4.17;;;;;;;7.84;71.26;101193.25;2107315;83;21103;-76
2021/09/06 01:06:14;;;;;;;11.65;5.12;;;;;;;7.76;70.99;101185.09;2106919;83;20980;-76
2021/09/06 01:09:19;;;;;;;12.50;5.25;;;;;;;7.71;71.59;101180.66;2126992;82;21110;-76
2021/09/06 01:12:28;;;;;;;9.50;5.50;;;;;;;7.68;72.00;101183.06;2130159;82;21024;-76
2021/09/06 01:15:30;;;;;;;8.20;5.42;;;;;;;7.70;72.13;101179.82;2080653;84;21050;-77
2021/09/06 01:18:32;;;;;;;16.02;5.62;;;;;;;7.72;72.25;101171.30;2081905;84;21676;-77
2021/09/06 01:21:34;;;;;;;9.13;5.08;;;;;;;7.70;71.93;101173.70;2080055;84;21008;-77
2021/09/06 01:24:54;;;;;;;10.03;5.37;;;;;;;7.64;72.13;101173.22;2079641;84;21081;-78
2021/09/06 01:27:55;;;;;;;10.58;5.30;;;;;;;7.63;72.22;101172.87;2078109;84;21059;-76
2021/09/06 01:30:58;;;;;;;7.33;4.47;;;;;;;7.61;71.96;101164.23;2079702;84;21583;-76
2021/09/06 01:34:00;;;;;;;9.28;5.05;;;;;;;7.61;71.72;101164.72;2133611;82;21053;-78
2021/09/06 01:37:02;;;;;;;6.33;4.75;;;;;;;7.61;71.76;101168.67;2091264;84;22004;-78
2021/09/06 01:40:07;;;;;;;9.45;5.60;;;;;;;7.55;71.89;101171.32;2097941;84;21569;-78
2021/09/06 01:43:09;;;;;;;9.73;4.83;;;;;;;7.52;72.15;101164.97;2097783;84;20965;-77
2021/09/06 01:46:10;;;;;;;12.05;5.47;;;;;;;7.48;72.49;101169.28;2107771;83;21008;-78
2021/09/06 01:49:11;;;;;;;8.08;5.35;;;;;;;7.46;72.66;101170.73;2109260;84;21542;-77
2021/09/06 01:52:12;;;;;;;8.25;5.45;;;;;;;7.44;72.88;101167.37;2106975;84;21016;-76
2021/09/06 01:55:13;;;;;;;15.30;6.33;;;;;;;7.43;73.04;101163.03;2105542;84;20987;-78
2021/09/06 01:58:16;;;;;;;9.13;5.62;;;;;;;7.43;73.20;101172.76;2132892;82;21523;-76
2021/09/06 02:01:18;;;;;;;6.65;5.20;;;;;;;7.40;73.23;101175.16;2102312;84;20993;-77
2021/09/06 02:04:19;;;;;;;9.70;5.45;;;;;;;7.35;73.34;101161.02;2071192;85;20970;-76
2021/09/06 02:07:21;;;;;;;12.07;5.40;;;;;;;7.32;73.48;101170.50;2072977;85;21453;-76
2021/09/06 02:10:22;;;;;;;10.40;5.53;;;;;;;7.28;73.55;101174.80;2072719;85;21496;-79
2021/09/06 02:13:25;;;;;;;8.95;5.67;;;;;;;7.23;73.59;101174.31;2070774;85;21488;-78
2021/09/06 02:16:26;;;;;;;8.33;5.33;;;;;;;7.22;73.71;101176.61;2072243;85;21606;-76
2021/09/06 02:19:29;;;;;;;8.18;5.40;;;;;;;7.18;73.80;101182.61;2101719;83;21448;-78
2021/09/06 02:22:31;;;;;;;10.60;5.45;;;;;;;7.17;73.91;101181.75;2074850;85;21373;-78
2021/09/06 02:25:33;;;;;;;8.63;5.42;;;;;;;7.19;73.88;101187.75;2070707;85;21100;-76
2021/09/06 02:28:36;;;;;;;8.78;5.40;;;;;;;7.19;73.91;101178.52;2107335;84;21099;-79
2021/09/06 02:31:40;;;;;;;11.03;6.20;;;;;;;7.14;74.08;101181.15;2074525;84;21060;-76
2021/09/06 02:34:58;;;;;;;8.60;5.40;;;;;;;7.10;74.32;101181.88;2081623;84;21058;-78
2021/09/06 02:38:01;;;;;;;9.68;6.15;;;;;;;7.07;74.48;101172.87;2102391;83;21053;-76
2021/09/06 02:41:03;;;;;;;13.30;7.62;;;;;;;7.06;74.73;101181.73;2073598;84;21073;-76
2021/09/06 02:44:04;;;;;;;8.73;5.65;;;;;;;7.04;74.80;101173.57;2071037;84;21612;-75
2021/09/06 02:47:06;;;;;;;8.95;5.45;;;;;;;7.02;74.89;101171.55;2051423;85;21060;-77
2021/09/06 02:50:08;;;;;;;9.68;5.92;;;;;;;7.02;74.92;101172.87;2101661;84;21095;-76
2021/09/06 02:53:10;;;;;;;10.70;5.90;;;;;;;6.99;75.12;101168.67;2088289;84;21108;-79
2021/09/06 02:56:11;;;;;;;9.35;5.78;;;;;;;6.96;75.18;101169.74;2103859;83;21035;-76
2021/09/06 02:59:14;;;;;;;8.95;5.90;;;;;;;6.93;75.13;101167.83;2099664;83;21472;-77
2021/09/06 03:02:15;;;;;;;12.55;6.05;;;;;;;6.91;75.32;101168.41;2108032;81;21873;-76
2021/09/06 03:05:17;;;;;;;9.30;6.00;;;;;;;6.88;75.57;101168.65;2135251;82;21065;-77
2021/09/06 03:08:20;;;;;;;11.30;6.65;;;;;;;6.84;75.64;101169.82;2130523;82;21071;-76
2021/09/06 03:11:24;;;;;;;11.68;6.05;;;;;;;6.79;75.88;101164.91;2134554;81;21055;-75
2021/09/06 03:14:26;;;;;;;13.32;6.53;;;;;;;6.76;75.81;101158.56;2138227;82;21492;-76
2021/09/06 03:17:27;;;;;;;;;;;;;;;6.76;75.84;101159.88;2142692;82;21028;-77
2021/09/06 03:20:30;;;;;;;11.63;7.80;;;;;;;6.76;75.77;101166.47;2104283;83;20156;-77
2021/09/06 03:23:33;;;;;;;12.37;7.22;;;;;;;6.72;75.82;101161.88;2135709;81;21075;-77
2021/09/06 03:26:35;;;;;;;9.70;6.58;;;;;;;6.71;75.79;101162.02;2131156;81;21056;-77
2021/09/06 03:29:38;;;;;;;10.58;6.83;;;;;;;6.72;75.94;101171.12;2111820;83;21531;-77
2021/09/06 03:32:39;;;;;;;10.85;6.40;;;;;;;6.72;75.85;101166.33;2100827;83;21526;-77
2021/09/06 03:35:44;;;;;;;11.70;6.42;;;;;;;6.71;75.85;101166.81;2112920;83;21055;-77
2021/09/06 03:38:46;;;;;;;9.65;6.35;;;;;;;6.69;75.97;101163.92;2108805;84;20989;-75
2021/09/06 03:41:48;;;;;;;10.45;7.03;;;;;;;6.67;76.09;101169.33;2120261;83;21472;-77
2021/09/06 03:44:50;;;;;;;9.08;7.20;;;;;;;6.66;76.11;101166.80;2124008;82;21067;-78
2021/09/06 03:47:52;;;;;;;11.88;7.12;;;;;;;6.63;76.06;101168.34;2122490;82;21427;-77
2021/09/06 03:50:54;;;;;;;12.47;7.58;;;;;;;6.60;76.19;101169.41;2120894;82;21164;-75
2021/09/06 03:53:55;;;;;;;11.18;6.83;;;;;;;6.58;76.19;101173.13;2122514;82;21004;-76
2021/09/06 03:56:58;;;;;;;11.90;7.30;;;;;;;6.50;76.39;101169.73;2121992;83;21107;-77
2021/09/06 04:00:00;;;;;;;13.40;7.65;;;;;;;6.45;76.35;101175.85;2122244;82;21071;-76
2021/09/06 04:03:01;;;;;;;13.15;6.97;;;;;;;6.40;76.51;101177.98;2123810;82;21087;-78
2021/09/06 04:06:03;;;;;;;14.18;7.08;;;;;;;6.42;76.77;101178.69;2135991;82;21142;-75
2021/09/06 04:09:04;;;;;;;13.90;7.25;;;;;;;6.40;76.73;101172.70;2137744;82;21001;-77
2021/09/06 04:12:06;;;;;;;11.83;7.53;;;;;;;6.38;76.90;101171.49;2139441;82;21103;-78
2021/09/06 04:15:10;;;;;;;14.13;7.35;;;;;;;6.38;76.95;101171.97;2105539;84;21067;-77
2021/09/06 04:18:11;;;;;;;10.53;7.12;;;;;;;6.37;76.97;101167.67;2106287;83;21000;-77
2021/09/06 04:21:12;;;;;;;10.40;6.83;;;;;;;6.36;77.06;101171.23;2138122;82;20984;-75
2021/09/06 04:24:14;;;;;;;13.90;7.45;;;;;;;6.35;77.29;101175.67;2125255;83;21083;-75
2021/09/06 04:27:15;;;;;;;11.68;7.58;;;;;;;6.36;77.30;101172.08;2126374;83;20997;-77
2021/09/06 04:30:16;;;;;;;;;;;;;;;6.37;77.29;101174.26;2141303;82;21023;-78
2021/09/06 04:33:18;;;;;;;12.23;7.17;;;;;;;6.37;77.45;101175.09;2137290;82;20691;-76
2021/09/06 04:36:18;;;;;;;;;;;;;;;6.38;77.61;101177.25;2109500;83;21012;-78
2021/09/06 04:39:21;;;;;;;13.60;7.03;;;;;;;6.38;77.63;101177.25;2130764;83;20105;-78
2021/09/06 04:42:24;;;;;;;12.70;7.78;;;;;;;6.37;77.63;101187.44;2129980;83;21538;-75
2021/09/06 04:45:25;;;;;;;13.00;7.58;;;;;;;6.43;77.48;101189.62;2128767;83;21042;-77
2021/09/06 04:48:26;;;;;;;15.55;7.10;;;;;;;6.47;77.55;101190.57;2130245;83;21051;-73
2021/09/06 04:51:28;;;;;;;15.30;8.05;;;;;;;6.55;77.69;101183.42;2132603;83;20984;-73
2021/09/06 04:54:30;;;;;;;14.00;8.03;;;;;;;6.61;77.70;101187.39;2133338;83;21047;-73
2021/09/06 04:57:32;;;;;;;13.53;8.35;;;;;;;6.72;77.75;101187.42;2128381;82;21055;-76
2021/09/06 05:00:33;;;;;;;13.50;7.45;;;;;;;6.87;77.81;101190.24;2130754;82;21430;-76
2021/09/06 05:03:34;;;;;;;11.15;7.20;;;;;;;7.09;77.63;101192.05;2125018;82;20999;-74
2021/09/06 05:06:37;;;;;;;15.78;6.80;;;;;;;7.24;77.40;101194.50;2042181;85;20989;-75
2021/09/06 05:09:38;;;;;;;10.30;6.87;;;;;;;7.43;77.50;101197.36;2113108;83;21027;-76
2021/09/06 05:12:40;;;;;;;13.70;7.03;;;;;;;7.89;77.57;101200.34;2105495;83;21476;-77
2021/09/06 05:15:41;;;;;;;12.37;7.00;;;;;;;8.46;77.29;101201.88;2102824;83;21062;-77
2021/09/06 05:18:46;;;;;;;8.68;6.33;;;;;;;9.15;76.93;101203.17;2112741;83;21020;-79
2021/09/06 05:21:47;;;;;;;10.30;6.22;;;;;;;9.86;76.29;101198.73;2066953;85;21475;-77
2021/09/06 05:24:53;;;;;;;11.73;6.12;;;;;;;10.54;75.41;101208.12;2067797;85;21521;-76
2021/09/06 05:27:52;;;;;;;10.95;5.62;;;;;;;11.19;74.58;101204.82;2105289;83;21064;-78
2021/09/06 05:30:53;;;;;;;11.75;5.75;;;;;;;11.76;73.31;101205.56;2113689;83;20949;-76
2021/09/06 05:33:55;;;;;;;9.10;5.87;;;;;;;12.85;72.15;101211.32;2111751;83;21443;-76
2021/09/06 05:36:57;;;;;;;9.68;5.53;;;;;;;12.85;72.15;101211.32;2103651;83;21072;-76
2021/09/06 05:39:58;;;;;;;15.10;6.17;;;;;;;13.45;71.37;101208.72;2113821;83;20997;-74
2021/09/06 05:42:59;;;;;;;11.22;5.40;;;;;;;14.14;70.78;101206.83;2087048;84;21073;-76
2021/09/06 05:46:02;;;;;;;9.80;5.25;;;;;;;14.85;69.88;101201.39;2102854;84;21113;-75
2021/09/06 05:49:04;;;;;;;8.15;5.22;;;;;;;15.25;67.77;101200.47;2110714;83;21004;-76
2021/09/06 05:52:06;;;;;;;9.75;5.60;;;;;;;15.54;66.68;101207.09;2112245;83;21110;-75
2021/09/06 05:55:15;;;;;;;9.63;6.03;;;;;;;15.64;65.34;101210.89;2101736;83;21056;-75
2021/09/06 05:58:16;;;;;;;10.25;4.95;;;;;;;15.71;65.15;101204.36;2076597;83;21008;-75
2021/09/06 06:01:18;;;;;;;8.50;4.80;;;;;;;16.04;65.10;101205.04;2110871;83;21107;-75
2021/09/06 06:04:20;;;;;;;10.10;5.50;;;;;;;16.56;64.58;101202.52;2131930;82;21653;-75
2021/09/06 06:07:22;;;;;;;9.15;4.87;;;;;;;16.77;63.09;101203.71;2139236;82;21617;-75
2021/09/06 06:10:24;;;;;;;11.43;5.58;;;;;;;16.99;62.99;101203.34;2140742;82;21037;-74
2021/09/06 06:13:25;;;;;;;7.53;5.33;;;;;;;17.37;61.94;101205.47;2137807;82;21061;-75
2021/09/06 06:16:26;;;;;;;8.90;5.15;;;;;;;17.56;60.93;101197.86;2140935;82;20995;-74
2021/09/06 06:19:30;;;;;;;7.40;4.95;;;;;;;17.45;59.60;101209.89;2139433;82;21690;-75
2021/09/06 06:22:50;;;;;;;11.00;4.92;;;;;;;17.51;59.67;101210.48;2138447;82;21044;-75
2021/09/06 06:25:59;;;;;;;9.58;4.83;;;;;;;17.98;59.53;101208.43;2142671;82;21045;-75
2021/09/06 06:29:00;;;;;;;8.85;5.20;;;;;;;17.82;56.98;101202.76;2144405;82;20954;-76
2021/09/06 06:32:03;;;;;;;9.25;5.20;;;;;;;18.02;58.57;101208.36;2138463;82;21007;-75
2021/09/06 06:35:05;;;;;;;6.33;4.17;;;;;;;18.48;57.72;101214.75;2143235;82;20967;-74
2021/09/06 06:38:07;;;;;;;7.80;4.70;;;;;;;18.81;57.41;101211.88;2140699;81;21523;-76
2021/09/06 06:41:10;;;;;;;8.60;4.75;;;;;;;18.76;55.59;101214.31;2143591;82;21044;-76
2021/09/06 06:44:13;;;;;;;7.60;4.95;;;;;;;18.68;54.38;101205.52;2141485;81;21129;-77
2021/09/06 06:47:15;;;;;;;8.05;4.17;;;;;;;18.70;54.45;101219.61;2144262;82;21063;-76
2021/09/06 06:50:17;;;;;;;5.97;4.42;;;;;;;18.64;54.12;101219.87;2119812;81;21034;-79
2021/09/06 06:53:18;;;;;;;8.73;4.28;;;;;;;18.54;53.60;101221.52;2141908;82;21064;-76
2021/09/06 06:56:21;;;;;;;8.00;4.10;;;;;;;18.52;52.70;101222.73;2138618;82;21747;-77
2021/09/06 06:59:24;;;;;;;6.75;3.90;;;;;;;18.59;53.68;101225.81;2106543;83;21046;-77
2021/09/06 07:02:26;;;;;;;8.55;4.20;;;;;;;18.81;53.17;101225.84;2107285;83;21060;-72
2021/09/06 07:05:27;;;;;;;5.65;3.35;;;;;;;19.04;52.72;101221.57;2140574;81;21067;-77
2021/09/06 07:08:29;;;;;;;5.72;3.55;;;;;;;19.17;52.46;101227.02;2133692;81;21056;-74
2021/09/06 07:11:30;;;;;;;6.03;3.72;;;;;;;19.42;51.63;101227.91;2099140;84;21011;-75
2021/09/06 07:14:33;;;;;;;8.73;3.72;;;;;;;19.36;51.68;101228.19;2135057;81;20981;-75
2021/09/06 07:17:36;;;;;;;5.87;3.72;;;;;;;19.57;51.64;101227.29;2131869;82;21045;-74
2021/09/06 07:20:37;;;;;;;6.90;3.50;;;;;;;20.02;50.23;101228.22;2138465;82;20991;-76
2021/09/06 07:23:38;;;;;;;5.58;3.45;;;;;;;19.95;49.76;101238.16;2135551;82;21079;-76
2021/09/06 07:26:40;;;;;;;7.75;3.85;;;;;;;19.70;50.16;101231.92;2144236;82;20987;-77
2021/09/06 07:29:41;;;;;;;4.92;3.27;;;;;;;19.96;49.96;101231.72;2113363;82;21516;-75
2021/09/06 07:32:44;;;;;;;4.55;3.27;;;;;;;19.88;46.93;101235.45;2137485;81;21746;-77
2021/09/06 07:35:45;;;;;;;4.62;3.00;;;;;;;19.66;45.98;101227.47;2140436;82;21015;-78
2021/09/06 07:38:46;;;;;;;5.03;3.27;;;;;;;19.17;46.26;101227.02;2140123;81;21100;-76
2021/09/06 07:41:48;;;;;;;6.08;3.60;;;;;;;19.12;47.75;101227.30;2140203;82;20999;-75
2021/09/06 07:44:50;;;;;;;6.20;3.50;;;;;;;19.11;46.52;101226.47;2142595;82;21063;-78
2021/09/06 07:47:51;;;;;;;6.10;3.12;;;;;;;18.96;46.56;101225.23;2137684;82;21063;-75
2021/09/06 07:50:54;;;;;;;3.27;2.75;;;;;;;19.06;47.36;101225.39;2141251;82;21466;-77
2021/09/06 07:53:55;;;;;;;6.37;2.95;;;;;;;19.14;47.00;101227.42;2141657;81;20987;-75
2021/09/06 07:56:57;;;;;;;4.50;2.77;;;;;;;19.38;47.64;101230.70;2146476;81;21023;-76
2021/09/06 08:00:00;;;;;;;7.83;2.77;;;;;;;19.45;46.90;101224.83;2140017;82;21053;-74
2021/09/06 08:03:01;;;;;;;5.72;2.95;;;;;;;19.65;46.12;101225.81;2121175;83;21005;-76
2021/09/06 08:06:04;;;;;;;4.40;2.50;;;;;;;19.91;44.68;101229.13;2119621;83;21084;-77
2021/09/06 08:09:07;;;;;;;5.53;3.12;;;;;;;20.00;43.28;101222.22;2119525;82;21123;-76
2021/09/06 08:12:09;;;;;;;6.85;3.00;;;;;;;19.57;42.70;101224.60;2122538;82;21004;-77
2021/09/06 08:15:11;;;;;;;4.95;2.70;;;;;;;19.32;43.25;101231.49;2120971;83;20976;-75
2021/09/06 08:18:13;;;;;;;4.72;3.08;;;;;;;19.37;43.82;101231.70;2119907;82;21505;-77
2021/09/06 08:21:16;;;;;;;3.65;3.15;;;;;;;19.58;42.82;101232.98;2116361;82;21052;-78
2021/09/06 08:24:17;;;;;;;4.55;3.00;;;;;;;19.53;43.56;101230.05;2122409;82;21058;-75
2021/09/06 08:27:21;;;;;;;4.22;2.37;;;;;;;19.77;43.28;101236.02;2121123;82;21459;-75
2021/09/06 08:30:22;;;;;;;3.40;2.72;;;;;;;20.15;42.75;101234.48;2119885;82;21163;-74
2021/09/06 08:33:24;;;;;;;3.67;1.75;;;;;;;20.30;41.04;101243.77;2121718;82;21008;-78
2021/09/06 08:36:26;;;;;;;3.72;2.15;;;;;;;19.98;40.02;101246.66;2123077;83;21559;-78
2021/09/06 08:39:27;;;;;;;2.22;1.90;;;;;;;19.97;39.42;101242.83;2116731;82;21012;-79
2021/09/06 08:42:28;;;;;;;5.17;2.12;;;;;;;19.94;39.69;101245.41;2122841;82;21040;-77
2021/09/06 08:45:33;;;;;;;2.50;1.80;;;;;;;19.80;37.09;101246.38;2121037;82;21026;-78
2021/09/06 08:48:35;;;;;;;2.47;2.08;;;;;;;19.69;39.19;101244.56;2124599;83;21084;-76
2021/09/06 08:51:36;;;;;;;2.77;1.72;;;;;;;19.65;38.47;101247.35;2097839;83;21025;-76
2021/09/06 08:54:37;;;;;;;3.35;1.87;;;;;;;19.70;39.30;101251.60;2099857;83;21040;-76
2021/09/06 08:57:39;;;;;;;2.27;2.08;;;;;;;19.55;39.02;101251.40;2105435;83;21080;-76
2021/09/06 09:00:45;;;;;;;3.25;1.90;;;;;;;19.67;40.13;101252.00;2111504;83;21018;-77
2021/09/06 09:04:26;;;;;;;3.08;1.90;;;;;;;19.88;39.52;101252.95;2095838;83;21120;-72
2021/09/06 09:07:30;;;;;;;2.80;2.08;;;;;;;19.93;39.42;101251.80;2092728;83;21686;-76
2021/09/06 09:10:48;;;;;;;3.47;1.80;;;;;;;20.25;39.09;101246.23;2067495;85;21105;-75
2021/09/06 09:14:12;;;;;;;3.27;1.97;;;;;;;20.43;37.65;101240.26;2113269;83;21044;-75
2021/09/06 09:17:19;;;;;;;3.72;2.15;;;;;;;20.04;37.86;101241.80;2112588;83;21072;-76
2021/09/06 09:20:41;;;;;;;1.98;1.75;;;;;;;19.95;36.68;101244.36;2113366;83;21029;-75
2021/09/06 09:23:48;;;;;;;2.72;2.40;;;;;;;19.92;37.68;101236.69;2110841;84;21017;-77
2021/09/06 09:27:04;;;;;;;3.52;2.02;;;;;;;19.89;38.80;101241.96;2110663;83;21005;-72
2021/09/06 09:30:26;;;;;;;3.62;2.20;;;;;;;20.26;39.39;101235.77;2114505;83;21001;-74
2021/09/06 09:33:54;;;;;;;5.37;2.27;;;;;;;20.26;37.68;101233.59;2113995;83;21091;-75
2021/09/06 09:37:25;;;;;;;2.30;1.98;;;;;;;20.13;38.51;101239.27;2111075;83;21064;-74
2021/09/06 09:40:34;;;;;;;4.05;2.20;;;;;;;20.45;38.54;101226.59;2114023;84;20997;-75
2021/09/06 09:43:35;;;;;;;4.15;2.58;;;;;;;20.65;39.50;101227.98;2113398;84;21024;-76
2021/09/06 09:46:38;;;;;;;2.12;1.90;;;;;;;20.91;38.19;101228.50;2114330;83;21064;-75
2021/09/06 09:49:41;;;;;;;2.50;2.00;;;;;;;21.21;38.72;101236.47;2113865;83;21032;-75
2021/09/06 09:52:42;;;;;;;3.60;2.12;;;;;;;21.15;38.17;101225.17;2112298;84;21028;-74
2021/09/06 09:55:44;;;;;;;2.75;2.05;;;;;;;21.26;37.26;101221.01;2112937;83;21107;-75
2021/09/06 09:58:46;;;;;;;2.77;2.10;;;;;;;21.29;36.22;101221.94;2113214;83;21021;-76
2021/09/06 10:01:55;;;;;;;2.72;1.60;;;;;;;21.24;37.45;101214.98;2114133;83;21517;-76
2021/09/06 10:05:04;;;;;;;4.15;2.00;;;;;;;21.21;35.99;101212.70;2112428;83;21090;-75
2021/09/06 10:08:15;;;;;;;2.30;1.80;;;;;;;20.80;36.55;101213.77;2111326;83;21007;-75
2021/09/06 10:11:16;;;;;;;3.73;2.03;;;;;;;20.75;36.51;101205.47;2143400;82;20997;-75
2021/09/06 10:14:27;;;;;;;2.47;1.98;;;;;;;20.69;36.42;101204.95;2141060;82;21712;-73
2021/09/06 10:17:47;;;;;;;1.70;1.60;;;;;;;20.71;36.30;101196.14;2138653;82;20983;-76
2021/09/06 10:20:51;;;;;;;2.35;1.85;;;;;;;20.80;37.02;101198.94;2096446;83;21076;-75
2021/09/06 10:23:53;;;;;;;3.87;2.00;;;;;;;20.88;36.13;101200.60;2097402;83;21135;-77
2021/09/06 10:27:05;;;;;;;3.72;2.10;;;;;;;21.00;37.03;101198.39;2103132;83;21021;-75
2021/09/06 10:30:13;;;;;;;4.08;2.25;;;;;;;21.28;37.25;101193.27;2112448;83;21045;-76
2021/09/06 10:33:37;;;;;;;3.33;1.87;;;;;;;21.69;37.26;101188.09;2145132;81;21041;-76
2021/09/06 10:36:39;;;;;;;3.15;1.90;;;;;;;21.61;36.19;101190.50;2142996;82;21656;-76
2021/09/06 10:39:48;;;;;;;3.45;1.90;;;;;;;21.65;35.32;101187.70;2144984;82;21500;-76
2021/09/06 10:42:51;;;;;;;3.45;1.80;;;;;;;21.58;35.73;101189.58;2144511;82;21096;-74
2021/09/06 10:45:53;;;;;;;2.62;2.00;;;;;;;21.38;35.85;101191.00;2142043;82;20989;-76
2021/09/06 10:49:04;;;;;;;4.67;2.00;;;;;;;21.34;35.07;101180.27;2115111;82;21191;-74
2021/09/06 10:52:07;;;;;;;5.00;2.20;;;;;;;21.31;35.48;101175.82;2140890;82;21013;-74
2021/09/06 10:55:09;;;;;;;3.50;2.08;;;;;;;21.47;36.10;101165.94;2144611;81;21014;-74
2021/09/06 10:58:11;;;;;;;2.45;2.12;;;;;;;21.70;36.51;101172.18;2145056;82;20985;-74
2021/09/06 11:01:13;;;;;;;2.70;2.02;;;;;;;21.47;35.50;101174.86;2140673;82;21559;-75
2021/09/06 11:04:15;;;;;;;2.45;1.98;;;;;;;21.47;35.41;101158.67;2139813;82;21067;-75
2021/09/06 11:07:18;;;;;;;5.15;2.20;;;;;;;21.49;34.34;101159.30;2133606;81;21562;-77
2021/09/06 11:10:22;;;;;;;3.47;1.92;;;;;;;21.38;34.58;101154.55;2142520;82;21028;-77
2021/09/06 11:13:34;;;;;;;3.55;2.40;;;;;;;21.43;35.01;101162.85;2138236;81;21121;-76
2021/09/06 11:16:38;;;;;;;3.70;2.27;;;;;;;21.47;34.82;101157.84;2141714;82;21023;-75
2021/09/06 11:19:40;;;;;;;3.10;2.30;;;;;;;21.42;34.45;101154.42;2137909;82;21470;-76
2021/09/06 11:22:42;;;;;;;2.55;1.70;;;;;;;21.48;34.83;101157.64;2142708;82;21015;-77
2021/09/06 11:25:44;;;;;;;2.98;2.00;;;;;;;21.44;34.12;101144.77;2135737;82;21557;-74
2021/09/06 11:28:47;;;;;;;2.98;2.12;;;;;;;21.27;33.76;101144.39;2135383;81;21016;-75
2021/09/06 11:31:50;;;;;;;2.95;2.15;;;;;;;21.33;33.98;101147.58;2137130;81;21019;-74
2021/09/06 11:35:08;;;;;;;2.90;2.10;;;;;;;21.21;34.33;101151.46;2140627;82;21023;-73
2021/09/06 11:38:13;;;;;;;3.65;2.25;;;;;;;21.26;34.90;101144.91;2141797;82;21716;-76
2021/09/06 11:41:15;;;;;;;3.72;1.77;;;;;;;21.33;33.86;101134.61;2135939;82;21043;-76
2021/09/06 11:44:19;;;;;;;1.80;1.60;;;;;;;21.33;34.01;101136.78;2113227;82;21117;-76
2021/09/06 11:47:22;;;;;;;2.95;1.80;;;;;;;21.31;33.80;101138.03;2137666;82;21072;-76
2021/09/06 11:50:24;;;;;;;2.95;1.80;;;;;;;21.45;33.92;101132.39;2139090;82;21565;-77
2021/09/06 11:53:29;;;;;;;2.70;1.75;;;;;;;21.56;33.09;101128.20;2106918;82;21502;-74
2021/09/06 11:56:31;;;;;;;3.00;2.00;;;;;;;21.56;33.09;101124.15;2133189;82;21019;-74
2021/09/06 11:59:32;;;;;;;3.33;1.90;;;;;;;21.67;33.72;101133.45;2137293;82;21024;-74
2021/09/06 12:02:33;;;;;;;2.90;1.92;;;;;;;21.84;33.76;101127.84;2139328;81;21292;-76
2021/09/06 12:05:48;;;;;;;2.33;1.95;;;;;;;22.02;33.39;101125.78;2133699;82;21087;-74
2021/09/06 12:08:57;;;;;;;5.62;2.22;;;;;;;22.17;33.00;101120.06;2130783;82;21035;-72
2021/09/06 12:11:59;;;;;;;3.85;2.50;;;;;;;22.14;32.91;101115.09;2136671;82;21703;-74
2021/09/06 12:15:05;;;;;;;4.05;1.90;;;;;;;21.98;33.25;101116.44;2135655;82;21774;-74
2021/09/06 12:18:14;;;;;;;2.37;1.90;;;;;;;21.90;32.58;101109.41;2103157;84;21095;-74
2021/09/06 12:21:18;;;;;;;2.25;1.90;;;;;;;21.78;31.22;101110.34;2138602;82;21043;-76
2021/09/06 12:24:25;;;;;;;3.90;2.10;;;;;;;21.60;32.12;101111.07;2142509;82;21082;-75
2021/09/06 12:27:26;;;;;;;2.58;1.60;;;;;;;21.55;32.32;101103.61;2142123;81;21014;-74
2021/09/06 12:30:27;;;;;;;1.95;1.50;;;;;;;21.71;32.42;101113.09;2143137;82;21050;-77
2021/09/06 12:33:30;;;;;;;3.20;2.12;;;;;;;21.50;32.14;101098.02;2141489;81;21042;-77
2021/09/06 12:36:31;;;;;;;3.95;2.15;;;;;;;21.39;33.16;101100.86;2143413;81;21027;-77
2021/09/06 12:39:36;;;;;;;4.03;2.45;;;;;;;21.32;33.34;101100.05;2137851;82;21028;-75
2021/09/06 12:42:38;;;;;;;2.25;1.98;;;;;;;21.30;33.95;101098.59;2132839;82;21020;-76
2021/09/06 12:45:39;;;;;;;5.50;2.22;;;;;;;21.23;34.21;101094.55;2144572;82;21109;-78
2021/09/06 12:48:40;;;;;;;4.30;2.30;;;;;;;21.35;34.62;101090.17;2094464;83;20995;-77
2021/09/06 12:51:41;;;;;;;3.75;2.30;;;;;;;21.26;34.92;101087.41;2145039;82;21015;-76
2021/09/06 12:54:44;;;;;;;3.87;2.25;;;;;;;21.25;34.37;101084.38;2134646;82;20984;-76
2021/09/06 12:57:45;;;;;;;4.30;2.20;;;;;;;21.21;34.30;101083.17;2132453;82;20998;-77
2021/09/06 13:00:46;;;;;;;2.87;1.90;;;;;;;21.40;34.48;101078.24;2136270;81;21057;-76
2021/09/06 13:03:47;;;;;;;4.12;2.10;;;;;;;21.51;34.78;101077.23;2135610;82;20992;-76
2021/09/06 13:06:49;;;;;;;7.95;2.45;;;;;;;21.59;35.10;101075.11;2129328;82;21050;-75
2021/09/06 13:09:50;;;;;;;2.37;1.87;;;;;;;21.46;34.62;101076.02;2111160;83;21022;-76
2021/09/06 13:12:51;;;;;;;5.78;2.12;;;;;;;21.33;34.71;101077.40;2130111;82;21019;-75
2021/09/06 13:15:56;;;;;;;3.00;2.47;;;;;;;21.31;34.98;101071.37;2137495;82;21519;-76
2021/09/06 13:18:56;;;;;;;2.98;1.98;;;;;;;21.20;35.56;101074.75;2141274;82;21547;-76
2021/09/06 13:21:59;;;;;;;4.55;2.40;;;;;;;21.07;35.54;101060.80;2104324;83;20961;-76
2021/09/06 13:25:00;;;;;;;4.00;2.27;;;;;;;21.13;35.81;101061.29;2106880;83;21522;-78
2021/09/06 13:28:06;;;;;;;3.72;2.42;;;;;;;21.24;35.57;101061.15;2111515;83;21499;-75
2021/09/06 13:31:07;;;;;;;3.02;1.98;;;;;;;21.14;35.74;101055.37;2120744;83;21025;-76
2021/09/06 13:34:09;;;;;;;3.42;2.10;;;;;;;21.17;36.07;101054.94;2141542;82;21469;-78
2021/09/06 13:37:10;;;;;;;3.72;2.17;;;;;;;21.21;36.55;101048.09;2141761;82;20993;-76
2021/09/06 13:40:13;;;;;;;3.52;2.12;;;;;;;21.22;36.07;101047.85;2145480;82;21488;-75
2021/09/06 13:43:14;;;;;;;3.77;2.33;;;;;;;21.09;36.99;101048.42;2101667;84;21708;-75
2021/09/06 13:46:15;;;;;;;6.50;2.35;;;;;;;21.14;37.11;101048.62;2135720;82;21528;-76
2021/09/06 13:49:17;;;;;;;6.10;2.90;;;;;;;21.12;34.96;101048.85;2135337;82;21643;-75
2021/09/06 13:52:18;;;;;;;4.40;2.80;;;;;;;21.11;35.15;101049.88;2112401;82;21061;-77
2021/09/06 13:55:20;;;;;;;2.45;2.05;;;;;;;21.09;35.35;101049.77;2119605;83;21529;-75
2021/09/06 13:58:21;;;;;;;4.62;2.50;;;;;;;21.03;35.71;101051.45;2119171;83;21022;-75
2021/09/06 14:01:22;;;;;;;3.55;2.47;;;;;;;20.99;36.15;101053.76;2137258;82;21045;-75
2021/09/06 14:04:24;;;;;;;2.25;2.05;;;;;;;20.98;35.96;101048.07;2138969;82;20941;-75
2021/09/06 14:07:25;;;;;;;7.50;2.85;;;;;;;21.06;36.09;101048.33;2140381;81;21248;-73
2021/09/06 14:10:28;;;;;;;4.83;2.47;;;;;;;21.07;35.57;101047.84;2140512;81;21016;-73
2021/09/06 14:13:30;;;;;;;3.80;2.58;;;;;;;21.07;35.64;101048.66;2142219;81;20976;-74
2021/09/06 14:16:32;;;;;;;4.10;2.60;;;;;;;20.97;35.63;101038.30;2136486;81;21027;-76